Cranwell, United Kingdom

8:08 AM BST on October 21, 2014 (GMT +0100)
Cranwell Air Base | Change Station
CLOSE
Current Station
Airport
Location: Cranwell,
Elevation: 220 ft
Nearby Weather Stations

Elev 220 ft 53.03 °N, 0.50 °W | Updated 18 minutes ago

Light Rain
Light Rain
55 °F
Feels Like 55 °F
N
23
Wind Variable Wind from SW

Today
High -- | Low -- °F
--% Chance of Precip.
Yesterday
High -- | Low -- °F
Precip. -- in
7:38 AM 5:53 PM
Waning Crescent, 7% visible
Pressure 29.36 in
Visibility 5.0 miles
Clouds Mostly Cloudy 1400 ft
Mostly Cloudy 3000 ft
Dew Point 52 °F
Humidity 88%
Rainfall 0.00 in
Snow Depth Not available.
UV 0 out of 12
Pollen Not available.
Air Quality Not available.
Flu Activity Not available.
METAR EGYD 210650Z 23020KT 8000 -RA BKN014 BKN030 13/11 Q0994 GRN TEMPO 6000 RA GRN

More Conditions Fewer Conditions

Pressure 29.36 in
Visibility 5.0 miles
Clouds Mostly Cloudy 1400 ft
Mostly Cloudy 3000 ft
Dew Point 52 °F
Humidity 88%
Rainfall 0.00 in
Snow Depth Not available.
UV 0 out of 12
Pollen Not available.
Air Quality Not available.
Flu Activity Not available.
METAR EGYD 210650Z 23020KT 8000 -RA BKN014 BKN030 13/11 Q0994 GRN TEMPO 6000 RA GRN

More Conditions Fewer Conditions

10-Day Weather Forecast

Almanac

Astronomy

Oct. 21, 2014 Rise Set
Actual Time 7:38 AM BST 5:53 PM BST
Civil Twilight 7:03 AM BST 6:28 PM BST
Nautical Twilight 6:23 AM BST 7:08 PM BST
Astronomical Twilight 5:43 AM BST 7:48 PM BST
Moon 4:49 AM BST 4:55 PM BST
Length of Visible Light 11h 25m
Length of Day
10h 14m
Tomorrow will be 4m 0s shorter.
Waning Crescent, 7% of the Moon is Illuminated
Today
Waning Crescent
Oct 23
New
Oct 30
First Quarter
Nov 6
Full
Nov 14
Last Quarter

Yesterday's Extremes

Country Highs Country Lows

Community

WunderPhotos

Upload Photos

1,763,619 photos uploaded!

Nearby

Snow Depth

Not available.

Earthquake Activity

City Distance Mag. Time & Date
No recent earthquake activity has been reported nearby.
Minimum magnitude displayed is 2.5.

Coastal Water Temperatures

Place Temperature
No Stations Reporting

Nearby Weather Stations